createdAt,value
2018-07-27T00:00:56.359Z,23.86
2018-07-27T00:01:56.359Z,23.93
2018-07-27T00:02:56.358Z,23.91
2018-07-27T00:03:56.358Z,23.91
2018-07-27T00:04:56.356Z,23.99
2018-07-27T00:05:56.355Z,23.95
2018-07-27T00:06:56.355Z,23.93
2018-07-27T00:07:56.353Z,24.02
2018-07-27T00:08:56.352Z,24.11
2018-07-27T00:09:56.352Z,24.05
2018-07-27T00:10:56.351Z,24.10
2018-07-27T00:11:56.349Z,24.08
2018-07-27T00:12:56.349Z,24.02
2018-07-27T00:13:56.348Z,23.99
2018-07-27T00:14:56.348Z,24.08
2018-07-27T00:15:56.346Z,24.06
2018-07-27T00:16:56.346Z,24.06
2018-07-27T00:17:56.344Z,24.13
2018-07-27T00:18:56.346Z,24.08
2018-07-27T00:19:56.343Z,24.01
2018-07-27T00:20:56.343Z,23.93
2018-07-27T00:21:56.342Z,23.98
2018-07-27T00:22:56.341Z,23.88
2018-07-27T00:23:56.340Z,23.81
2018-07-27T00:24:56.339Z,23.84
2018-07-27T00:25:56.352Z,23.88
2018-07-27T00:26:56.339Z,23.78
2018-07-27T00:27:56.337Z,23.78
2018-07-27T00:28:56.338Z,23.71
2018-07-27T00:29:56.336Z,23.66
2018-07-27T00:30:56.336Z,23.63
2018-07-27T00:31:56.334Z,23.54
2018-07-27T00:32:56.334Z,23.43
2018-07-27T00:33:56.333Z,23.43
2018-07-27T00:34:56.333Z,23.36
2018-07-27T00:35:56.331Z,23.44
2018-07-27T00:36:56.331Z,23.46
2018-07-27T00:37:56.330Z,23.47
2018-07-27T00:38:56.330Z,23.50
2018-07-27T00:39:56.328Z,23.51
2018-07-27T00:40:56.328Z,23.55
2018-07-27T00:41:56.327Z,23.55
2018-07-27T00:42:56.328Z,23.58
2018-07-27T00:43:56.325Z,23.54
2018-07-27T00:44:56.327Z,23.55
2018-07-27T00:45:56.324Z,23.50
2018-07-27T00:46:56.324Z,23.46
2018-07-27T00:47:56.324Z,23.51
2018-07-27T00:48:56.323Z,23.50
2018-07-27T00:49:56.321Z,23.41
2018-07-27T00:50:56.320Z,23.44
2018-07-27T00:51:56.318Z,23.37
2018-07-27T00:52:56.318Z,23.44
2018-07-27T00:53:56.318Z,23.46
2018-07-27T00:54:56.317Z,23.48
2018-07-27T00:55:56.318Z,23.47
2018-07-27T00:56:56.315Z,23.47
2018-07-27T00:57:56.314Z,23.46
2018-07-27T00:58:56.313Z,23.43
2018-07-27T00:59:56.312Z,23.40
2018-07-27T01:00:56.312Z,23.41
2018-07-27T01:01:56.311Z,23.46
2018-07-27T01:02:56.310Z,23.37
2018-07-27T01:03:56.308Z,23.32
2018-07-27T01:04:56.308Z,23.21
2018-07-27T01:05:56.308Z,23.32
2018-07-27T01:06:56.307Z,23.28
2018-07-27T01:07:56.305Z,23.25
2018-07-27T01:08:56.304Z,23.25
2018-07-27T01:09:56.304Z,23.23
2018-07-27T01:10:56.303Z,23.28
2018-07-27T01:11:56.304Z,23.27
2018-07-27T01:12:56.301Z,23.34
2018-07-27T01:13:56.300Z,23.43
2018-07-27T01:14:56.299Z,23.56
2018-07-27T01:15:56.298Z,23.59
2018-07-27T01:16:56.297Z,23.66
2018-07-27T01:17:56.299Z,23.71
2018-07-27T01:18:56.296Z,23.84
2018-07-27T01:19:56.294Z,23.80
2018-07-27T01:20:56.294Z,23.83
2018-07-27T01:21:56.293Z,23.95
2018-07-27T01:22:56.295Z,23.92
2018-07-27T01:23:56.290Z,24.08
2018-07-27T01:24:56.289Z,24.16
2018-07-27T01:25:56.289Z,24.16
2018-07-27T01:26:56.289Z,24.17
2018-07-27T01:27:56.287Z,24.14
2018-07-27T01:28:56.285Z,24.10
2018-07-27T01:29:56.289Z,24.18
2018-07-27T01:30:56.284Z,24.24
2018-07-27T01:31:56.282Z,24.20
2018-07-27T01:32:56.281Z,24.24
2018-07-27T01:33:56.281Z,24.17
2018-07-27T01:34:56.280Z,24.16
2018-07-27T01:35:56.277Z,24.03
2018-07-27T01:36:56.277Z,24.10
2018-07-27T01:37:56.279Z,23.98
2018-07-27T01:38:56.276Z,23.91
2018-07-27T01:39:56.273Z,23.93
2018-07-27T01:40:56.273Z,23.83
2018-07-27T01:41:56.275Z,23.65
2018-07-27T01:42:56.271Z,23.66
2018-07-27T01:43:56.274Z,23.66
2018-07-27T01:44:56.269Z,23.73
2018-07-27T01:45:56.268Z,23.61
2018-07-27T01:46:56.268Z,23.58
2018-07-27T01:47:56.266Z,23.55
2018-07-27T01:48:56.266Z,23.58
2018-07-27T01:49:56.269Z,23.54
2018-07-27T01:50:56.290Z,23.50
2018-07-27T01:51:56.262Z,23.44
2018-07-27T01:52:56.262Z,23.41
2018-07-27T01:53:56.261Z,23.40
2018-07-27T01:54:56.260Z,23.46
2018-07-27T01:55:56.258Z,23.44
2018-07-27T01:56:56.258Z,23.54
2018-07-27T01:57:56.262Z,23.47
2018-07-27T01:58:56.257Z,23.50
2018-07-27T01:59:56.255Z,23.39
2018-07-27T02:00:56.254Z,23.46
2018-07-27T02:01:56.254Z,23.44
2018-07-27T02:02:56.253Z,23.44
2018-07-27T02:03:56.251Z,23.44
2018-07-27T02:04:56.250Z,23.43
2018-07-27T02:05:56.269Z,23.44
2018-07-27T02:06:56.249Z,23.48
2018-07-27T02:07:56.247Z,23.58
2018-07-27T02:08:56.246Z,23.54
2018-07-27T02:09:56.248Z,23.46
2018-07-27T02:10:56.245Z,23.46
2018-07-27T02:11:56.243Z,23.41
2018-07-27T02:12:56.278Z,23.32
2018-07-27T02:13:56.241Z,23.27
2018-07-27T02:14:56.244Z,23.28
2018-07-27T02:15:56.240Z,23.27
2018-07-27T02:16:56.242Z,23.24
2018-07-27T02:17:56.239Z,23.34
2018-07-27T02:18:56.236Z,23.34
2018-07-27T02:19:56.235Z,23.43
2018-07-27T02:20:56.234Z,23.48
2018-07-27T02:21:56.233Z,23.44
2018-07-27T02:22:56.236Z,23.47
2018-07-27T02:23:56.235Z,23.50
2018-07-27T02:24:56.229Z,23.36
2018-07-27T02:25:56.229Z,23.40
2018-07-27T02:26:56.228Z,23.46
2018-07-27T02:27:56.232Z,23.55
2018-07-27T02:28:56.225Z,23.62
2018-07-27T02:29:56.225Z,23.66
2018-07-27T02:30:56.225Z,23.66
2018-07-27T02:31:56.222Z,23.81
2018-07-27T02:32:56.221Z,23.83
2018-07-27T02:33:56.366Z,23.84
2018-07-27T02:34:56.220Z,23.83
2018-07-27T02:35:56.218Z,23.80
2018-07-27T02:36:56.217Z,23.88
2018-07-27T02:37:56.216Z,23.92
2018-07-27T02:38:56.218Z,23.78
2018-07-27T02:39:56.263Z,23.86
2018-07-27T02:40:56.213Z,23.87
2018-07-27T02:41:56.215Z,23.87
2018-07-27T02:42:56.212Z,23.78
2018-07-27T02:43:56.209Z,23.65
2018-07-27T02:44:56.208Z,23.69
2018-07-27T02:45:56.207Z,23.69
2018-07-27T02:46:56.207Z,23.66
2018-07-27T02:47:56.218Z,23.80
2018-07-27T02:48:56.204Z,23.80
2018-07-27T02:49:56.203Z,23.84
2018-07-27T02:50:56.203Z,23.84
2018-07-27T02:51:56.209Z,23.84
2018-07-27T02:52:56.200Z,23.81
2018-07-27T02:53:56.199Z,23.87
2018-07-27T02:54:56.198Z,23.91
2018-07-27T02:55:56.196Z,23.84
2018-07-27T02:56:56.197Z,23.87
2018-07-27T02:57:56.195Z,23.98
2018-07-27T02:58:56.194Z,23.95
2018-07-27T02:59:56.192Z,23.88
2018-07-27T03:00:56.191Z,24.03
2018-07-27T03:01:56.192Z,24.06
2018-07-27T03:02:56.189Z,24.10
2018-07-27T03:03:56.188Z,24.05
2018-07-27T03:04:56.187Z,24.11
2018-07-27T03:05:56.186Z,24.03
2018-07-27T03:06:56.184Z,24.03
2018-07-27T03:07:56.183Z,24.11
2018-07-27T03:08:56.182Z,24.08
2018-07-27T03:09:56.182Z,24.17
2018-07-27T03:10:56.180Z,24.13
2018-07-27T03:11:56.178Z,24.16
2018-07-27T03:12:56.178Z,24.21
2018-07-27T03:13:56.176Z,24.20
2018-07-27T03:14:56.179Z,24.24
2018-07-27T03:15:56.174Z,24.23
2018-07-27T03:16:56.174Z,24.17
2018-07-27T03:17:56.172Z,24.14
2018-07-27T03:18:56.170Z,24.02
2018-07-27T03:19:56.169Z,24.05
2018-07-27T03:20:56.168Z,24.05
2018-07-27T03:21:56.167Z,24.11
2018-07-27T03:22:56.166Z,24.03
2018-07-27T03:23:56.163Z,24.05
2018-07-27T03:24:56.163Z,23.96
2018-07-27T03:25:56.163Z,23.96
2018-07-27T03:26:56.161Z,23.95
2018-07-27T03:27:56.159Z,23.93
2018-07-27T03:28:56.158Z,23.87
2018-07-27T03:29:56.165Z,23.91
2018-07-27T03:30:56.161Z,23.83
2018-07-27T03:31:56.157Z,23.78
2018-07-27T03:32:56.154Z,23.84
2018-07-27T03:33:56.153Z,23.81
2018-07-27T03:34:56.152Z,23.84
2018-07-27T03:35:56.150Z,23.83
2018-07-27T03:36:56.149Z,23.83
2018-07-27T03:37:56.148Z,23.84
2018-07-27T03:38:56.148Z,23.87
2018-07-27T03:39:56.145Z,23.83
2018-07-27T03:40:56.146Z,23.71
2018-07-27T03:41:56.144Z,23.77
2018-07-27T03:42:56.143Z,23.66
2018-07-27T03:43:56.141Z,23.63
2018-07-27T03:44:56.140Z,23.58
2018-07-27T03:45:56.139Z,23.46
2018-07-27T03:46:56.140Z,23.43
2018-07-27T03:47:56.135Z,23.41
2018-07-27T03:48:56.137Z,23.37
2018-07-27T03:49:56.136Z,23.34
2018-07-27T03:50:56.133Z,23.39
2018-07-27T03:51:56.131Z,23.36
2018-07-27T03:52:56.130Z,23.43
2018-07-27T03:53:56.129Z,23.41
2018-07-27T03:54:56.128Z,23.47
2018-07-27T03:55:56.126Z,23.43
2018-07-27T03:56:56.125Z,23.50
2018-07-27T03:57:56.124Z,23.50
2018-07-27T03:58:56.129Z,23.47
2018-07-27T03:59:56.121Z,23.44
2018-07-27T04:00:56.120Z,23.44
2018-07-27T04:01:56.119Z,23.47
2018-07-27T04:02:56.118Z,23.46
2018-07-27T04:03:56.116Z,23.43
2018-07-27T04:04:56.115Z,23.46
2018-07-27T04:05:56.114Z,23.56
2018-07-27T04:06:56.112Z,23.58
2018-07-27T04:07:56.111Z,23.68
2018-07-27T04:08:56.110Z,23.63
2018-07-27T04:09:56.111Z,23.68
2018-07-27T04:10:56.107Z,23.55
2018-07-27T04:11:56.109Z,23.50
2018-07-27T04:12:56.104Z,23.48
2018-07-27T04:13:56.103Z,23.36
2018-07-27T04:14:56.128Z,23.28
2018-07-27T04:15:56.100Z,23.37
2018-07-27T04:16:56.099Z,23.31
2018-07-27T04:17:56.099Z,23.28
2018-07-27T04:18:56.097Z,23.18
2018-07-27T04:19:56.095Z,23.08
2018-07-27T04:20:56.147Z,23.10
2018-07-27T04:21:56.093Z,22.98
2018-07-27T04:22:56.092Z,22.81
2018-07-27T04:23:56.091Z,22.80
2018-07-27T04:24:56.090Z,22.72
2018-07-27T04:25:56.089Z,22.65
2018-07-27T04:26:56.088Z,22.60
2018-07-27T04:27:56.086Z,22.60
2018-07-27T04:28:56.085Z,22.47
2018-07-27T04:29:56.083Z,22.50
2018-07-27T04:30:56.083Z,22.39
2018-07-27T04:31:56.080Z,22.32
2018-07-27T04:32:56.090Z,22.25
2018-07-27T04:33:56.079Z,22.20
2018-07-27T04:34:56.077Z,22.20
2018-07-27T04:35:56.076Z,22.13
2018-07-27T04:36:56.075Z,22.13
2018-07-27T04:37:56.073Z,22.18
2018-07-27T04:38:56.072Z,22.13
2018-07-27T04:39:56.070Z,22.11
2018-07-27T04:40:56.069Z,22.14
2018-07-27T04:41:56.068Z,22.06
2018-07-27T04:42:56.109Z,22.11
2018-07-27T04:43:56.065Z,22.17
2018-07-27T04:44:56.064Z,22.14
2018-07-27T04:45:56.063Z,22.10
2018-07-27T04:46:56.061Z,22.02
2018-07-27T04:47:56.060Z,21.96
2018-07-27T04:48:56.058Z,22.06
2018-07-27T04:49:56.059Z,21.96
2018-07-27T04:50:56.056Z,22.06
2018-07-27T04:51:56.054Z,22.04
2018-07-27T04:52:56.053Z,21.98
2018-07-27T04:53:56.052Z,21.91
2018-07-27T04:54:56.051Z,21.95
2018-07-27T04:55:56.048Z,21.93
2018-07-27T04:56:56.048Z,22.11
2018-07-27T04:57:56.047Z,22.23
2018-07-27T04:58:56.045Z,22.35
2018-07-27T04:59:56.044Z,22.35
2018-07-27T05:00:56.042Z,22.43
2018-07-27T05:01:56.041Z,22.48
2018-07-27T05:02:56.039Z,22.47
2018-07-27T05:03:56.041Z,22.48
2018-07-27T05:04:56.037Z,22.53
2018-07-27T05:05:56.039Z,22.50
2018-07-27T05:06:56.034Z,22.63
2018-07-27T05:07:56.032Z,22.47
2018-07-27T05:08:56.032Z,22.50
2018-07-27T05:09:56.030Z,22.50
2018-07-27T05:10:56.029Z,22.51
2018-07-27T05:11:56.061Z,22.55
2018-07-27T05:12:56.026Z,22.57
2018-07-27T05:13:56.024Z,22.47
2018-07-27T05:14:56.023Z,22.47
2018-07-27T05:15:56.021Z,22.48
2018-07-27T05:16:56.020Z,22.62
2018-07-27T05:17:56.019Z,22.62
2018-07-27T05:18:56.017Z,22.70
2018-07-27T05:19:56.016Z,22.69
2018-07-27T05:20:56.014Z,22.69
2018-07-27T05:21:56.013Z,22.63
2018-07-27T05:22:56.013Z,22.63
2018-07-27T05:23:56.010Z,22.68
2018-07-27T05:24:56.009Z,22.76
2018-07-27T05:25:56.009Z,22.70
2018-07-27T05:26:56.008Z,22.75
2018-07-27T05:27:56.009Z,22.78
2018-07-27T05:28:56.004Z,22.84
2018-07-27T05:29:56.004Z,22.84
2018-07-27T05:30:56.003Z,22.90
2018-07-27T05:31:56.001Z,22.93
2018-07-27T05:32:56.000Z,22.98
2018-07-27T05:33:55.999Z,23.06
2018-07-27T05:34:55.998Z,23.23
2018-07-27T05:35:55.996Z,23.37
2018-07-27T05:36:55.996Z,23.41
2018-07-27T05:37:55.994Z,23.56
2018-07-27T05:38:55.994Z,23.66
2018-07-27T05:39:55.993Z,23.69
2018-07-27T05:40:55.992Z,23.81
2018-07-27T05:41:55.991Z,23.84
2018-07-27T05:42:55.991Z,23.96
2018-07-27T05:43:55.989Z,23.93
2018-07-27T05:44:55.990Z,23.99
2018-07-27T05:45:55.988Z,24.11
2018-07-27T05:46:56.105Z,24.20
2018-07-27T05:47:55.986Z,24.29
2018-07-27T05:48:55.986Z,24.36
2018-07-27T05:49:55.986Z,24.55
2018-07-27T05:50:55.985Z,24.57
2018-07-27T05:51:55.984Z,24.58
2018-07-27T05:52:55.985Z,24.76
2018-07-27T05:53:55.984Z,24.74
2018-07-27T05:54:55.984Z,24.68
2018-07-27T05:55:55.983Z,24.85
2018-07-27T05:56:55.983Z,24.84
2018-07-27T05:57:55.983Z,24.85
2018-07-27T05:58:55.983Z,24.80
2018-07-27T05:59:55.982Z,24.86
2018-07-27T06:00:55.982Z,24.89
2018-07-27T06:01:55.983Z,24.92
2018-07-27T06:02:56.058Z,25.10
2018-07-27T06:03:55.982Z,25.10
2018-07-27T06:04:56.054Z,25.11
2018-07-27T06:05:55.982Z,25.14
2018-07-27T06:06:55.985Z,25.28
2018-07-27T06:07:55.982Z,25.32
2018-07-27T06:08:55.997Z,25.40
2018-07-27T06:09:55.986Z,25.32
2018-07-27T06:10:55.985Z,25.48
2018-07-27T06:11:55.984Z,25.46
2018-07-27T06:12:55.984Z,25.51
2018-07-27T06:13:55.985Z,25.60
2018-07-27T06:14:55.986Z,25.62
2018-07-27T06:15:55.990Z,25.68
2018-07-27T06:16:55.986Z,25.73
2018-07-27T06:17:56.012Z,25.73
2018-07-27T06:18:55.988Z,25.78
2018-07-27T06:19:55.988Z,25.83
2018-07-27T06:20:56.048Z,25.83
2018-07-27T06:21:55.991Z,25.84
2018-07-27T06:22:55.994Z,26.03
2018-07-27T06:23:56.070Z,26.06
2018-07-27T06:24:55.993Z,26.15
2018-07-27T06:25:55.995Z,26.22
2018-07-27T06:26:55.996Z,26.41
2018-07-27T06:27:55.999Z,26.58
2018-07-27T06:28:55.997Z,26.70
2018-07-27T06:29:56.035Z,26.78
2018-07-27T06:30:56.005Z,26.88
2018-07-27T06:31:56.001Z,26.99
2018-07-27T06:32:56.002Z,27.10
2018-07-27T06:33:56.003Z,27.12
2018-07-27T06:34:56.005Z,27.17
2018-07-27T06:35:56.006Z,27.22
2018-07-27T06:36:56.007Z,27.25
2018-07-27T06:37:56.009Z,27.32
2018-07-27T06:38:56.011Z,27.36
2018-07-27T06:39:56.013Z,27.36
2018-07-27T06:40:56.013Z,27.51
2018-07-27T06:41:56.016Z,27.58
2018-07-27T06:42:56.018Z,27.74
2018-07-27T06:43:56.018Z,27.77
2018-07-27T06:44:56.021Z,27.82
2018-07-27T06:45:56.023Z,27.95
2018-07-27T06:46:56.025Z,27.89
2018-07-27T06:47:56.026Z,27.87
2018-07-27T06:48:56.029Z,28.00
2018-07-27T06:49:56.030Z,28.17
2018-07-27T06:50:56.034Z,28.22
2018-07-27T06:51:56.034Z,28.32
2018-07-27T06:52:56.036Z,28.27
2018-07-27T06:53:56.038Z,28.25
2018-07-27T06:54:56.041Z,28.32
2018-07-27T06:55:56.042Z,28.37
2018-07-27T06:56:56.046Z,28.48
2018-07-27T06:57:56.046Z,28.59
2018-07-27T06:58:56.049Z,28.57
2018-07-27T06:59:56.050Z,28.64
2018-07-27T07:00:56.053Z,28.64
2018-07-27T07:01:56.055Z,28.79
2018-07-27T07:02:56.058Z,28.81
2018-07-27T07:03:56.063Z,28.75
2018-07-27T07:04:56.062Z,28.81
2018-07-27T07:05:56.067Z,28.96
2018-07-27T07:06:56.068Z,28.89
2018-07-27T07:07:56.069Z,28.89
2018-07-27T07:08:56.072Z,28.96
2018-07-27T07:09:56.075Z,29.07
2018-07-27T07:10:56.078Z,29.23
2018-07-27T07:11:56.080Z,29.23
2018-07-27T07:12:56.082Z,29.26
2018-07-27T07:13:56.085Z,29.42
2018-07-27T07:14:56.095Z,29.47
2018-07-27T07:15:56.091Z,29.54
2018-07-27T07:16:56.094Z,29.68
2018-07-27T07:17:56.099Z,29.84
2018-07-27T07:18:56.102Z,29.97
2018-07-27T07:19:56.105Z,30.02
2018-07-27T07:20:56.109Z,30.03
2018-07-27T07:21:56.115Z,30.19
2018-07-27T07:22:56.126Z,30.25
2018-07-27T07:23:56.126Z,30.32
2018-07-27T07:24:56.134Z,30.53
2018-07-27T07:25:56.502Z,30.66
2018-07-27T07:26:56.147Z,30.65
2018-07-27T07:27:56.155Z,30.73
2018-07-27T07:28:56.162Z,30.88
2018-07-27T07:29:56.175Z,30.97
2018-07-27T07:30:56.180Z,31.05
2018-07-27T07:31:56.188Z,31.31
2018-07-27T07:32:56.198Z,31.24
2018-07-27T07:33:56.208Z,31.51
2018-07-27T07:34:56.218Z,31.59
2018-07-27T07:35:56.227Z,31.77
2018-07-27T07:36:56.238Z,31.87
2018-07-27T07:37:56.249Z,31.85
2018-07-27T07:38:56.260Z,31.97
2018-07-27T07:39:56.271Z,32.08
2018-07-27T07:40:56.282Z,32.19
2018-07-27T07:41:56.294Z,32.16
2018-07-27T07:42:56.306Z,32.37
2018-07-27T07:43:56.318Z,32.41
2018-07-27T07:44:56.385Z,32.45
2018-07-27T07:45:56.342Z,32.49
2018-07-27T07:46:56.355Z,32.59
2018-07-27T07:47:56.367Z,32.63
2018-07-27T07:48:56.380Z,32.70
2018-07-27T07:49:56.393Z,32.75
2018-07-27T07:50:56.407Z,32.67
2018-07-27T07:51:56.419Z,32.77
2018-07-27T07:52:56.432Z,32.83
2018-07-27T07:53:56.446Z,32.89
2018-07-27T07:54:56.460Z,32.90
2018-07-27T07:55:56.472Z,32.89
2018-07-27T07:56:56.485Z,32.86
2018-07-27T07:57:56.500Z,32.97
2018-07-27T07:58:56.513Z,33.08
2018-07-27T07:59:56.525Z,33.27
2018-07-27T08:00:56.540Z,33.36
2018-07-27T08:01:56.555Z,33.45
2018-07-27T08:02:56.569Z,33.64
2018-07-27T08:03:56.581Z,33.69
2018-07-27T08:04:56.595Z,33.83
2018-07-27T08:05:56.614Z,33.89
2018-07-27T08:06:56.628Z,33.92
2018-07-27T08:07:56.661Z,33.89
2018-07-27T08:08:56.653Z,34.18
2018-07-27T08:09:56.769Z,34.38
2018-07-27T08:10:56.684Z,34.47
2018-07-27T08:11:56.697Z,34.58
2018-07-27T08:12:56.712Z,34.45
2018-07-27T08:13:56.730Z,34.61
2018-07-27T08:14:56.743Z,34.71
2018-07-27T08:15:56.757Z,34.67
2018-07-27T08:16:56.773Z,34.75
2018-07-27T08:17:56.788Z,34.80
2018-07-27T08:18:56.804Z,34.70
2018-07-27T08:19:56.818Z,34.74
2018-07-27T08:20:56.834Z,34.74
2018-07-27T08:21:56.850Z,34.66
2018-07-27T08:22:56.865Z,34.78
2018-07-27T08:23:56.880Z,34.93
2018-07-27T08:24:56.898Z,35.07
2018-07-27T08:25:56.973Z,35.08
2018-07-27T08:26:56.927Z,35.24
2018-07-27T08:27:56.942Z,35.34
2018-07-27T08:28:56.958Z,35.31
2018-07-27T08:29:56.974Z,35.56
2018-07-27T08:30:56.990Z,35.67
2018-07-27T08:31:57.006Z,35.89
2018-07-27T08:32:57.023Z,35.95
2018-07-27T08:33:57.039Z,36.20
2018-07-27T08:34:57.059Z,36.16
2018-07-27T08:35:57.074Z,36.12
2018-07-27T08:36:57.091Z,36.20
2018-07-27T08:37:57.109Z,36.08
2018-07-27T08:38:57.166Z,36.07
2018-07-27T08:39:57.143Z,36.16
2018-07-27T08:40:57.161Z,36.25
2018-07-27T08:41:57.179Z,36.39
2018-07-27T08:42:57.197Z,36.43
2018-07-27T08:43:57.214Z,36.61
2018-07-27T08:44:57.232Z,36.54
2018-07-27T08:45:57.251Z,36.39
2018-07-27T08:46:57.270Z,36.43
2018-07-27T08:47:57.286Z,36.37
2018-07-27T08:48:57.305Z,36.49
2018-07-27T08:49:57.323Z,36.58
2018-07-27T08:50:57.343Z,36.68
2018-07-27T08:51:57.359Z,36.74
2018-07-27T08:52:57.378Z,36.70
2018-07-27T08:53:57.396Z,36.67
2018-07-27T08:54:57.414Z,36.68
2018-07-27T08:55:57.433Z,36.81
2018-07-27T08:56:57.451Z,36.84
2018-07-27T08:57:57.470Z,36.79
2018-07-27T08:58:57.489Z,36.79
2018-07-27T08:59:57.506Z,36.74
2018-07-27T09:00:57.525Z,36.83
2018-07-27T09:01:57.546Z,36.92
2018-07-27T09:02:57.563Z,37.14
2018-07-27T09:03:57.633Z,37.29
2018-07-27T09:04:57.599Z,37.28
2018-07-27T09:05:57.618Z,37.45
2018-07-27T09:06:57.637Z,37.45
2018-07-27T09:07:57.655Z,37.36
2018-07-27T09:08:57.675Z,37.39
2018-07-27T09:09:57.693Z,37.32
2018-07-27T09:10:57.712Z,37.15
2018-07-27T09:11:57.732Z,36.84
2018-07-27T09:12:57.748Z,36.55
2018-07-27T09:13:57.767Z,36.61
2018-07-27T09:14:57.788Z,36.81
2018-07-27T09:15:57.803Z,36.88
2018-07-27T09:16:57.822Z,36.98
2018-07-27T09:17:57.841Z,36.99
2018-07-27T09:18:57.860Z,37.13
2018-07-27T09:19:57.877Z,37.28
2018-07-27T09:20:57.896Z,37.06
2018-07-27T09:21:57.915Z,36.88
2018-07-27T09:22:57.934Z,36.79
2018-07-27T09:23:57.951Z,36.76
2018-07-27T09:24:58.501Z,36.79
2018-07-27T09:25:57.989Z,37.07
2018-07-27T09:26:58.009Z,37.10
2018-07-27T09:27:58.026Z,37.01
2018-07-27T09:28:58.044Z,37.03
2018-07-27T09:29:58.064Z,37.03
2018-07-27T09:30:58.081Z,36.98
2018-07-27T09:31:58.100Z,36.99
2018-07-27T09:32:58.118Z,37.07
2018-07-27T09:33:58.136Z,37.02
2018-07-27T09:34:58.155Z,37.13
2018-07-27T09:35:58.172Z,37.33
2018-07-27T09:36:58.191Z,37.36
2018-07-27T09:37:58.210Z,37.39
2018-07-27T09:38:58.229Z,37.28
2018-07-27T09:39:58.247Z,37.32
2018-07-27T09:40:58.266Z,37.42
2018-07-27T09:41:58.285Z,37.51
2018-07-27T09:42:58.304Z,37.48
2018-07-27T09:43:58.323Z,37.65
2018-07-27T09:44:58.340Z,37.84
2018-07-27T09:45:58.360Z,37.92
2018-07-27T09:46:58.378Z,37.78
2018-07-27T09:47:58.397Z,37.94
2018-07-27T09:48:58.417Z,38.06
2018-07-27T09:49:58.436Z,38.01
2018-07-27T09:50:58.460Z,37.97
2018-07-27T09:51:58.474Z,37.87
2018-07-27T09:52:58.494Z,37.96
2018-07-27T09:53:58.513Z,38.11
2018-07-27T09:54:58.533Z,38.34
2018-07-27T09:55:58.551Z,38.27
2018-07-27T09:56:58.571Z,38.26
2018-07-27T09:57:58.616Z,38.19
2018-07-27T09:58:58.611Z,38.19
2018-07-27T09:59:58.630Z,38.28
2018-07-27T10:00:58.650Z,38.04
2018-07-27T10:01:58.675Z,37.93
2018-07-27T10:02:58.696Z,38.14
2018-07-27T10:03:58.708Z,37.96
2018-07-27T10:04:58.728Z,37.96
2018-07-27T10:05:58.753Z,38.06
2018-07-27T10:06:58.768Z,38.19
2018-07-27T10:07:58.787Z,38.38
2018-07-27T10:08:58.807Z,38.45
2018-07-27T10:09:58.828Z,38.55
2018-07-27T10:10:58.848Z,38.73
2018-07-27T10:11:58.867Z,38.74
2018-07-27T10:12:58.888Z,39.00
2018-07-27T10:13:58.908Z,39.11
2018-07-27T10:14:58.928Z,38.99
2018-07-27T10:15:58.947Z,38.89
2018-07-27T10:16:58.968Z,38.91
2018-07-27T10:17:58.988Z,38.71
2018-07-27T10:18:59.009Z,38.57
2018-07-27T10:19:59.028Z,38.48
2018-07-27T10:20:59.048Z,38.27
2018-07-27T10:21:59.068Z,38.21
2018-07-27T10:22:59.088Z,38.11
2018-07-27T10:23:59.157Z,37.93
2018-07-27T10:24:59.126Z,37.96
2018-07-27T10:25:59.146Z,37.97
2018-07-27T10:26:59.168Z,37.67
2018-07-27T10:27:59.184Z,37.35
2018-07-27T10:28:59.203Z,37.13
2018-07-27T10:29:59.222Z,36.79
2018-07-27T10:30:59.240Z,36.83
2018-07-27T10:31:59.258Z,36.91
2018-07-27T10:32:59.278Z,37.21
2018-07-27T10:33:59.294Z,37.48
2018-07-27T10:34:59.313Z,37.59
2018-07-27T10:35:59.330Z,37.75
2018-07-27T10:36:59.349Z,37.78
2018-07-27T10:37:59.367Z,37.96
2018-07-27T10:38:59.385Z,38.27
2018-07-27T10:39:59.402Z,38.12
2018-07-27T10:40:59.420Z,37.99
2018-07-27T10:41:59.438Z,37.67
2018-07-27T10:42:59.456Z,37.63
2018-07-27T10:43:59.473Z,37.72
2018-07-27T10:44:59.567Z,37.80
2018-07-27T10:45:59.509Z,37.75
2018-07-27T10:46:59.527Z,38.01
2018-07-27T10:47:59.543Z,37.96
2018-07-27T10:48:59.562Z,38.12
2018-07-27T10:49:59.580Z,38.12
2018-07-27T10:50:59.597Z,37.86
2018-07-27T10:51:59.614Z,37.82
2018-07-27T10:52:59.632Z,37.82
2018-07-27T10:53:59.649Z,37.47
2018-07-27T10:54:59.667Z,37.39
2018-07-27T10:55:59.683Z,37.59
2018-07-27T10:56:59.703Z,37.56
2018-07-27T10:57:59.717Z,37.68
2018-07-27T10:58:59.738Z,37.99
2018-07-27T10:59:59.751Z,38.05
2018-07-27T11:00:59.768Z,38.24
2018-07-27T11:01:59.785Z,38.50
2018-07-27T11:02:59.803Z,38.84
2018-07-27T11:03:59.820Z,38.86
2018-07-27T11:04:59.838Z,38.67
2018-07-27T11:05:59.858Z,38.46
2018-07-27T11:06:59.873Z,38.04
2018-07-27T11:07:59.890Z,37.80
2018-07-27T11:08:59.909Z,37.82
2018-07-27T11:09:59.925Z,37.93
2018-07-27T11:10:59.943Z,38.08
2018-07-27T11:11:59.960Z,38.26
2018-07-27T11:12:59.977Z,38.38
2018-07-27T11:13:59.998Z,38.52
2018-07-27T11:15:00.015Z,38.68
2018-07-27T11:16:00.030Z,38.83
2018-07-27T11:17:00.048Z,38.97
2018-07-27T11:18:00.070Z,39.00
2018-07-27T11:19:00.084Z,39.24
2018-07-27T11:20:00.101Z,39.43
2018-07-27T11:21:00.120Z,39.68
2018-07-27T11:22:00.139Z,39.68
2018-07-27T11:23:00.158Z,39.77
2018-07-27T11:24:00.176Z,39.89
2018-07-27T11:25:00.196Z,39.97
2018-07-27T11:26:00.218Z,40.20
2018-07-27T11:27:00.235Z,40.05
2018-07-27T11:28:00.253Z,39.68
2018-07-27T11:29:00.273Z,39.51
2018-07-27T11:30:00.293Z,39.26
2018-07-27T11:31:00.421Z,39.21
2018-07-27T11:32:00.331Z,39.59
2018-07-27T11:33:00.351Z,39.78
2018-07-27T11:34:00.371Z,39.55
2018-07-27T11:35:00.390Z,39.18
2018-07-27T11:36:00.408Z,39.03
2018-07-27T11:37:00.430Z,39.14
2018-07-27T11:38:00.446Z,39.33
2018-07-27T11:39:00.466Z,39.48
2018-07-27T11:40:00.484Z,39.56
2018-07-27T11:41:00.504Z,39.60
2018-07-27T11:42:00.524Z,39.75
2018-07-27T11:43:00.543Z,39.44
2018-07-27T11:44:00.561Z,39.38
2018-07-27T11:45:00.581Z,39.36
2018-07-27T11:46:00.600Z,39.43
2018-07-27T11:47:00.619Z,39.70
2018-07-27T11:48:00.637Z,39.94
2018-07-27T11:49:00.657Z,40.12
2018-07-27T11:50:00.678Z,40.28
2018-07-27T11:51:00.697Z,40.35
2018-07-27T11:52:00.716Z,40.50
2018-07-27T11:53:00.736Z,40.58
2018-07-27T11:54:00.757Z,40.92
2018-07-27T11:55:00.777Z,40.78
2018-07-27T11:56:00.796Z,40.61
2018-07-27T11:57:00.817Z,40.59
2018-07-27T11:58:00.838Z,40.46
2018-07-27T11:59:00.859Z,40.73
2018-07-27T12:00:00.882Z,40.77
2018-07-27T12:01:00.905Z,41.04
2018-07-27T12:02:00.922Z,40.99
2018-07-27T12:03:00.943Z,41.09
2018-07-27T12:04:00.963Z,41.15
2018-07-27T12:05:00.986Z,41.33
2018-07-27T12:06:01.006Z,41.36
2018-07-27T12:07:01.038Z,41.29
2018-07-27T12:08:01.049Z,41.18
2018-07-27T12:09:01.067Z,41.00
2018-07-27T12:10:01.089Z,40.99
2018-07-27T12:11:01.110Z,41.18
2018-07-27T12:12:01.146Z,41.07
2018-07-27T12:13:01.152Z,41.18
2018-07-27T12:14:01.291Z,41.22
2018-07-27T12:15:01.410Z,41.49
2018-07-27T12:16:01.213Z,41.53
2018-07-27T12:17:01.236Z,41.53
2018-07-27T12:18:01.255Z,41.50
2018-07-27T12:19:01.276Z,41.56
2018-07-27T12:20:01.296Z,41.74
2018-07-27T12:21:01.481Z,41.28
2018-07-27T12:22:01.346Z,40.34
2018-07-27T12:23:01.357Z,40.21
2018-07-27T12:24:01.376Z,40.31
2018-07-27T12:25:01.397Z,40.56
2018-07-27T12:26:01.416Z,40.82
2018-07-27T12:27:01.453Z,41.04
2018-07-27T12:28:01.455Z,41.41
2018-07-27T12:29:01.474Z,41.74
2018-07-27T12:30:01.494Z,42.10
2018-07-27T12:31:01.514Z,42.24
2018-07-27T12:32:01.534Z,42.39
2018-07-27T12:33:01.553Z,42.21
2018-07-27T12:34:01.572Z,41.71
2018-07-27T12:35:01.592Z,41.56
2018-07-27T12:36:01.610Z,41.53
2018-07-27T12:37:01.630Z,41.70
2018-07-27T12:38:01.650Z,41.85
2018-07-27T12:39:01.676Z,41.92
2018-07-27T12:40:01.690Z,41.94
2018-07-27T12:41:01.707Z,41.83
2018-07-27T12:42:01.725Z,41.68
2018-07-27T12:43:01.754Z,41.68
2018-07-27T12:44:01.763Z,41.82
2018-07-27T12:45:01.796Z,42.09
2018-07-27T12:46:01.822Z,42.17
2018-07-27T12:47:01.820Z,42.09
2018-07-27T12:48:01.838Z,42.16
2018-07-27T12:49:01.857Z,42.10
2018-07-27T12:50:01.878Z,42.10
2018-07-27T12:51:01.896Z,42.25
2018-07-27T12:52:01.913Z,42.54
2018-07-27T12:53:01.935Z,42.36